Time;durP1;ratioP1;P1;durP2;ratioP2;P2;SDS_P1;SDS_P2;PMS_P1;PMS_P2;Temp;Humidity;BMP_temperature;BMP_pressure;BME280_temperature;BME280_humidity;BME280_pressure;Samples;Min_cycle;Max_cycle;Signal;HPM_P1;HPM_P2
2021/05/02 00:01:12;;;;;;;58.33;34.65;;;;;;;10.69;82.62;97100.75;1780771;79;21241;-72
2021/05/02 00:03:38;;;;;;;56.15;33.73;;;;;;;10.69;82.18;97089.91;1780808;80;21051;-72
2021/05/02 00:06:05;;;;;;;60.45;35.43;;;;;;;10.67;82.24;97086.68;1780806;79;21138;-72
2021/05/02 00:08:32;;;;;;;43.17;29.67;;;;;;;10.66;82.07;97092.41;1780803;80;21103;-72
2021/05/02 00:10:58;;;;;;;48.35;30.35;;;;;;;10.66;82.36;97091.05;1780810;79;21556;-72
2021/05/02 00:13:25;;;;;;;47.95;31.15;;;;;;;10.60;82.44;97087.67;1780657;80;21441;-72
2021/05/02 00:15:51;;;;;;;44.98;30.82;;;;;;;10.65;82.34;97075.35;1780909;79;21481;-72
2021/05/02 00:18:17;;;;;;;43.98;28.87;;;;;;;10.70;82.36;97078.52;1780860;80;21558;-72
2021/05/02 00:20:44;;;;;;;51.58;29.15;;;;;;;10.72;82.67;97069.53;1762245;81;21096;-72
2021/05/02 00:23:10;;;;;;;45.48;27.48;;;;;;;10.73;82.62;97065.16;1780781;79;22140;-72
2021/05/02 00:25:36;;;;;;;48.70;31.02;;;;;;;10.77;82.61;97069.96;1762179;81;21168;-72
2021/05/02 00:28:08;;;;;;;48.23;31.33;;;;;;;10.77;82.61;97069.96;1762176;81;21223;-73
2021/05/02 00:30:35;;;;;;;46.77;29.48;;;;;;;10.85;82.45;97071.95;1780860;80;21142;-72
2021/05/02 00:33:01;;;;;;;48.60;30.88;;;;;;;10.81;81.88;97065.55;1762268;81;21310;-72
2021/05/02 00:35:27;;;;;;;50.98;30.50;;;;;;;10.81;81.88;97065.55;1780852;80;22013;-72
2021/05/02 00:37:54;;;;;;;53.17;32.28;;;;;;;10.76;82.73;97065.09;1762103;80;21506;-72
2021/05/02 00:40:38;;;;;;;53.02;33.23;;;;;;;10.77;82.64;97070.80;1736563;81;21136;-73
2021/05/02 00:43:13;;;;;;;48.90;30.20;;;;;;;10.74;82.30;97068.11;1760017;80;21252;-72
2021/05/02 00:46:08;;;;;;;64.15;36.60;;;;;;;10.70;84.09;97051.43;1762391;81;21512;-71
2021/05/02 00:49:00;;;;;;;64.95;35.05;;;;;;;10.70;84.09;97051.43;1762185;81;21268;-72
2021/05/02 00:51:27;;;;;;;49.63;31.00;;;;;;;10.68;84.15;97051.73;1780559;79;21447;-72
2021/05/02 00:54:07;;;;;;;77.70;46.15;;;;;;;10.68;84.83;97044.13;1756916;81;21550;-73
2021/05/02 00:56:37;;;;;;;71.53;37.20;;;;;;;10.70;83.74;97040.59;1735961;81;21511;-71
2021/05/02 00:59:09;;;;;;;58.13;35.40;;;;;;;10.68;82.94;97024.64;1735897;82;21102;-72
2021/05/02 01:01:39;;;;;;;57.43;33.48;;;;;;;10.66;82.87;97015.99;1735853;82;21190;-71
2021/05/02 01:04:05;;;;;;;54.75;31.90;;;;;;;10.63;82.94;97002.27;1735780;82;21062;-72
2021/05/02 01:06:32;;;;;;;55.08;33.58;;;;;;;10.63;82.94;97002.27;1716971;82;21161;-72
2021/05/02 01:09:02;;;;;;;55.65;31.73;;;;;;;10.63;83.09;96986.02;1735856;82;21042;-72
2021/05/02 01:11:29;;;;;;;58.35;34.58;;;;;;;10.63;83.09;96986.02;1735807;82;21398;-71
2021/05/02 01:13:58;;;;;;;54.73;32.80;;;;;;;10.68;82.98;96985.36;1735942;82;22040;-71
2021/05/02 01:16:29;;;;;;;52.50;31.97;;;;;;;10.77;82.94;96980.02;1736000;82;21042;-71
2021/05/02 01:18:56;;;;;;;47.75;28.00;;;;;;;10.82;82.79;96982.59;1735945;82;21067;-72
2021/05/02 01:21:35;;;;;;;46.92;31.15;;;;;;;10.87;82.62;96973.56;1735838;82;21046;-71
2021/05/02 01:24:02;;;;;;;45.67;29.90;;;;;;;10.90;82.51;96975.09;1735845;82;21114;-72
2021/05/02 01:26:28;;;;;;;46.63;31.45;;;;;;;10.91;82.32;96967.20;1735816;82;21247;-72
2021/05/02 01:28:56;;;;;;;56.58;34.38;;;;;;;10.95;82.20;96959.28;1735854;82;21069;-72
2021/05/02 01:31:22;;;;;;;51.08;31.93;;;;;;;10.92;81.98;96943.61;1735902;82;21054;-72
2021/05/02 01:33:48;;;;;;;62.78;37.03;;;;;;;10.80;81.52;96930.63;1716906;82;21066;-72
2021/05/02 01:36:15;;;;;;;58.38;35.80;;;;;;;10.81;82.33;96932.77;1735824;82;21185;-72
2021/05/02 01:38:42;;;;;;;58.70;36.80;;;;;;;10.77;81.98;96933.12;1735919;82;21479;-72
2021/05/02 01:41:08;;;;;;;59.95;35.40;;;;;;;10.77;81.98;96933.12;1735807;82;21126;-72
2021/05/02 01:43:34;;;;;;;56.90;35.28;;;;;;;10.70;81.60;96923.53;1735886;82;21432;-72
2021/05/02 01:46:03;;;;;;;61.15;34.25;;;;;;;10.76;82.34;96908.49;1735827;82;21125;-72
2021/05/02 01:48:29;;;;;;;;;;;;;;;10.76;82.34;96908.49;1738395;82;21177;-72
2021/05/02 01:51:03;;;;;;;54.40;31.65;;;;;;;10.84;81.92;96907.76;1734720;81;21299;-72
2021/05/02 01:53:30;;;;;;;58.80;35.38;;;;;;;10.75;81.73;96895.50;1735017;81;21219;-71
2021/05/02 01:55:56;;;;;;;58.38;37.48;;;;;;;10.76;82.04;96887.61;1743182;81;21081;-71
2021/05/02 01:58:23;;;;;;;58.08;36.05;;;;;;;10.82;82.23;96891.02;1743232;82;21564;-71
2021/05/02 02:01:03;;;;;;;56.68;38.48;;;;;;;10.77;82.27;96889.24;1743182;82;21144;-71
2021/05/02 02:03:30;;;;;;;57.83;34.55;;;;;;;10.64;82.76;96881.41;1742223;82;21271;-73
2021/05/02 02:05:56;;;;;;;64.25;37.23;;;;;;;10.64;82.76;96881.41;1743208;81;21105;-72
2021/05/02 02:08:22;;;;;;;62.40;37.75;;;;;;;10.57;82.43;96872.90;1743232;82;21136;-73
2021/05/02 02:10:49;;;;;;;61.37;35.98;;;;;;;10.59;82.75;96837.37;1743153;82;21164;-72
2021/05/02 02:13:16;;;;;;;58.17;32.73;;;;;;;10.64;82.97;96859.73;1743074;81;21108;-72
2021/05/02 02:15:43;;;;;;;58.25;35.30;;;;;;;10.64;82.97;96859.73;1743268;82;21191;-73
2021/05/02 02:18:11;;;;;;;59.27;34.53;;;;;;;10.65;82.73;96849.70;1715691;82;21156;-72
2021/05/02 02:20:44;;;;;;;60.85;36.30;;;;;;;10.72;82.63;96844.09;1743234;82;21081;-73
2021/05/02 02:23:31;;;;;;;60.75;33.50;;;;;;;10.72;83.92;96840.03;1743129;81;21529;-71
2021/05/02 02:26:12;;;;;;;49.40;30.85;;;;;;;10.73;83.37;96831.34;1743166;81;21076;-71
2021/05/02 02:28:48;;;;;;;49.27;31.40;;;;;;;10.81;83.69;96827.89;1847676;76;22575;-72
2021/05/02 02:31:15;;;;;;;52.58;31.57;;;;;;;10.70;82.81;96823.84;1812927;78;21648;-72
2021/05/02 02:33:42;;;;;;;51.48;32.35;;;;;;;10.70;82.81;96823.84;1785852;80;21157;-71
2021/05/02 02:36:10;;;;;;;55.38;33.78;;;;;;;10.66;82.88;96817.42;1785809;79;20945;-72
2021/05/02 02:38:36;;;;;;;61.13;36.20;;;;;;;10.59;82.77;96815.14;1786150;80;20952;-71
2021/05/02 02:41:03;;;;;;;54.95;33.75;;;;;;;10.57;83.37;96809.80;1713972;79;21598;-71
2021/05/02 02:43:33;;;;;;;53.35;32.65;;;;;;;10.59;83.94;96797.54;1785872;80;21057;-72
2021/05/02 02:46:05;;;;;;;55.78;32.60;;;;;;;10.67;83.29;96782.45;1785862;79;21251;-71
2021/05/02 02:48:35;;;;;;;54.03;32.85;;;;;;;10.67;83.29;96782.45;1785863;80;20980;-72
2021/05/02 02:51:03;;;;;;;57.62;33.58;;;;;;;10.70;83.48;96775.88;1785949;79;21003;-71
2021/05/02 02:53:33;;;;;;;52.43;32.50;;;;;;;10.78;83.41;96762.69;1785896;80;21027;-71
2021/05/02 02:56:08;;;;;;;55.05;33.95;;;;;;;10.80;83.22;96762.62;1785842;79;21114;-71
2021/05/02 02:58:57;;;;;;;56.73;34.78;;;;;;;10.84;83.22;96767.64;1785939;80;22218;-71
2021/05/02 03:01:26;;;;;;;;;;;;;;;10.89;83.14;96764.02;1788540;79;21464;-71
2021/05/02 03:03:54;;;;;;;53.75;32.67;;;;;;;10.93;82.89;96769.84;1785883;80;20254;-71
2021/05/02 03:06:20;;;;;;;52.20;29.87;;;;;;;10.86;82.71;96753.81;1785907;79;21035;-71
2021/05/02 03:08:48;;;;;;;54.15;33.73;;;;;;;10.77;83.06;96753.77;1785841;80;21020;-71
2021/05/02 03:11:15;;;;;;;53.40;33.02;;;;;;;10.64;83.04;96742.45;1785840;79;21190;-71
2021/05/02 03:13:44;;;;;;;58.10;35.65;;;;;;;10.58;83.35;96730.94;1785753;80;21082;-71
2021/05/02 03:16:10;;;;;;;52.15;30.75;;;;;;;10.49;83.39;96729.29;1785971;79;21110;-71
2021/05/02 03:19:22;;;;;;;50.00;30.85;;;;;;;10.43;85.19;96712.39;1785801;80;21086;-71
2021/05/02 03:22:07;;;;;;;58.83;35.48;;;;;;;10.48;84.08;96713.59;1785852;79;20912;-72
2021/05/02 03:24:41;;;;;;;55.28;33.70;;;;;;;10.48;83.94;96696.55;1785990;80;22019;-71
2021/05/02 03:27:26;;;;;;;52.33;30.88;;;;;;;10.55;83.86;96703.69;1785703;79;21106;-71
2021/05/02 03:29:52;;;;;;;46.10;28.10;;;;;;;10.57;83.82;96703.61;1785928;80;21082;-70
2021/05/02 03:32:23;;;;;;;50.60;29.57;;;;;;;10.59;84.64;96717.63;1785757;79;21122;-70
2021/05/02 03:34:49;;;;;;;45.70;26.82;;;;;;;10.62;84.70;96696.71;1785920;80;21499;-72
2021/05/02 03:37:18;;;;;;;50.85;30.85;;;;;;;10.62;84.70;96696.71;1785800;79;21186;-72
2021/05/02 03:39:49;;;;;;;54.53;30.90;;;;;;;10.68;84.42;96694.65;1755210;80;21071;-72
2021/05/02 03:42:15;;;;;;;48.65;29.10;;;;;;;10.71;84.39;96688.06;1785227;79;21027;-72
2021/05/02 03:44:41;;;;;;;45.38;27.82;;;;;;;10.70;84.86;96691.89;1785282;80;21110;-72
2021/05/02 03:47:08;;;;;;;45.65;28.75;;;;;;;10.70;84.86;96691.89;1785301;79;21020;-72
2021/05/02 03:49:35;;;;;;;48.02;30.95;;;;;;;10.72;84.89;96691.58;1785344;80;21197;-72
2021/05/02 03:52:01;;;;;;;48.38;30.60;;;;;;;10.70;84.09;96692.45;1785177;79;21091;-72
2021/05/02 03:54:27;;;;;;;52.78;32.17;;;;;;;10.64;84.37;96679.59;1785242;80;21091;-72
2021/05/02 03:56:53;;;;;;;50.23;31.68;;;;;;;10.64;84.37;96679.59;1785314;79;21074;-72
2021/05/02 03:59:22;;;;;;;53.92;29.35;;;;;;;10.73;84.10;96680.98;1785401;79;21137;-72
2021/05/02 04:02:01;;;;;;;50.50;31.02;;;;;;;10.79;83.62;96677.58;1785320;79;21981;-72
2021/05/02 04:04:35;;;;;;;51.58;28.90;;;;;;;10.71;83.42;96665.04;1785309;80;21469;-71
2021/05/02 04:07:06;;;;;;;54.75;32.10;;;;;;;10.66;83.40;96654.33;1785190;79;21095;-72
2021/05/02 04:09:35;;;;;;;54.70;33.35;;;;;;;10.64;83.44;96653.05;1785281;80;21107;-71
2021/05/02 04:12:03;;;;;;;49.77;31.15;;;;;;;10.69;83.59;96650.22;1785227;79;21094;-71
2021/05/02 04:14:29;;;;;;;50.00;29.00;;;;;;;10.81;83.69;96646.90;1785242;79;22055;-71
2021/05/02 04:17:02;;;;;;;49.40;30.27;;;;;;;10.81;83.69;96646.90;1785198;79;21106;-71
2021/05/02 04:19:29;;;;;;;48.52;28.85;;;;;;;10.90;83.54;96659.36;1784361;80;21082;-71
2021/05/02 04:21:55;;;;;;;45.95;29.23;;;;;;;10.94;83.46;96667.12;1785251;79;21471;-72
2021/05/02 04:24:22;;;;;;;41.98;28.23;;;;;;;10.98;83.19;96660.50;1785260;80;21133;-71
2021/05/02 04:26:52;;;;;;;54.70;30.17;;;;;;;11.00;83.30;96659.62;1785186;79;21186;-71
2021/05/02 04:29:19;;;;;;;45.33;30.97;;;;;;;11.05;83.26;96658.69;1796466;79;21069;-72
2021/05/02 04:31:46;;;;;;;46.48;30.20;;;;;;;11.01;82.93;96659.30;1797290;78;21054;-72
2021/05/02 04:34:12;;;;;;;55.63;33.65;;;;;;;10.93;83.01;96661.98;1797219;79;21110;-72
2021/05/02 04:36:38;;;;;;;58.38;33.85;;;;;;;10.87;83.04;96678.97;1797308;78;21050;-72
2021/05/02 04:39:05;;;;;;;50.40;31.82;;;;;;;10.87;83.05;96674.11;1797235;79;21206;-72
2021/05/02 04:41:31;;;;;;;54.55;29.80;;;;;;;10.89;83.22;96663.74;1797232;78;22104;-72
2021/05/02 04:43:58;;;;;;;54.83;31.42;;;;;;;10.87;83.45;96680.88;1797197;79;21011;-72
2021/05/02 04:46:24;;;;;;;51.77;31.25;;;;;;;10.88;83.31;96683.83;1797269;78;21403;-72
2021/05/02 04:48:50;;;;;;;53.95;28.25;;;;;;;10.88;83.23;96677.85;1797153;79;21129;-72
2021/05/02 04:51:19;;;;;;;47.60;27.75;;;;;;;10.91;83.17;96685.91;1797143;78;21986;-72
2021/05/02 04:53:44;;;;;;;50.58;29.15;;;;;;;10.91;83.18;96680.48;1797124;79;21479;-72
2021/05/02 04:56:11;;;;;;;48.83;29.77;;;;;;;10.92;83.54;96667.97;1797209;78;21094;-72
2021/05/02 04:58:37;;;;;;;46.35;28.52;;;;;;;10.76;85.41;96649.73;1797246;79;21070;-72
2021/05/02 05:01:03;;;;;;;44.30;26.07;;;;;;;10.76;85.41;96649.73;1797225;78;21110;-72
2021/05/02 05:03:31;;;;;;;48.83;29.63;;;;;;;10.65;86.86;96644.61;1797250;79;21191;-72
2021/05/02 05:05:58;;;;;;;52.35;29.27;;;;;;;10.60;86.80;96650.74;1797458;78;21483;-72
2021/05/02 05:08:24;;;;;;;51.23;29.12;;;;;;;10.62;85.73;96666.12;1797199;79;21423;-72
2021/05/02 05:10:50;;;;;;;54.67;32.38;;;;;;;10.64;85.24;96663.89;1797301;79;21089;-72
2021/05/02 05:13:17;;;;;;;51.30;31.48;;;;;;;10.60;85.64;96642.06;1797170;79;21015;-72
2021/05/02 05:15:43;;;;;;;48.70;31.07;;;;;;;10.53;87.05;96643.06;1797204;79;21178;-72
2021/05/02 05:18:09;;;;;;;59.05;34.20;;;;;;;10.52;87.40;96637.41;1797070;78;21125;-72
2021/05/02 05:20:35;;;;;;;62.50;44.48;;;;;;;10.51;87.56;96625.50;1797163;79;21118;-72
2021/05/02 05:23:01;;;;;;;52.75;34.33;;;;;;;10.49;88.58;96612.84;1797234;78;21487;-72
2021/05/02 05:25:27;;;;;;;54.55;33.73;;;;;;;10.49;88.58;96612.84;1797179;79;21113;-72
2021/05/02 05:27:53;;;;;;;54.48;34.20;;;;;;;10.50;88.15;96611.16;1794024;78;21194;-72
2021/05/02 05:30:20;;;;;;;47.78;28.77;;;;;;;10.52;86.53;96609.52;1785131;80;21094;-73
2021/05/02 05:32:46;;;;;;;47.75;29.45;;;;;;;10.47;85.99;96619.92;1785210;79;21039;-72
2021/05/02 05:35:12;;;;;;;48.05;27.65;;;;;;;10.41;86.05;96621.96;1785209;80;21158;-73
2021/05/02 05:37:38;;;;;;;57.05;33.48;;;;;;;10.37;86.44;96614.23;1785239;79;21162;-72
2021/05/02 05:40:07;;;;;;;53.60;33.08;;;;;;;10.28;87.85;96617.45;1785170;80;21154;-73
2021/05/02 05:42:34;;;;;;;47.88;30.82;;;;;;;10.35;86.79;96622.44;1784807;79;21516;-72
2021/05/02 05:45:00;;;;;;;46.42;28.90;;;;;;;10.39;88.67;96616.63;1754788;80;21015;-72
2021/05/02 05:47:27;;;;;;;48.87;28.25;;;;;;;10.39;88.67;96616.63;1785147;79;20932;-72
2021/05/02 05:49:53;;;;;;;45.43;27.17;;;;;;;10.41;87.53;96630.08;1785295;79;21094;-73
2021/05/02 05:52:20;;;;;;;42.40;24.27;;;;;;;10.35;87.89;96607.55;1785230;79;21198;-72
2021/05/02 05:54:46;;;;;;;40.30;24.43;;;;;;;10.38;86.82;96615.03;1785051;80;21114;-73
2021/05/02 05:57:12;;;;;;;36.65;22.98;;;;;;;10.31;89.29;96600.58;1785246;79;21126;-72
2021/05/02 05:59:38;;;;;;;38.38;22.17;;;;;;;10.38;87.89;96610.97;1785227;80;21027;-72
2021/05/02 06:02:05;;;;;;;34.78;19.20;;;;;;;10.36;87.32;96613.99;1785166;79;21027;-73
2021/05/02 06:04:31;;;;;;;37.28;24.05;;;;;;;10.37;87.49;96601.25;1785140;80;21188;-73
2021/05/02 06:06:57;;;;;;;35.45;22.27;;;;;;;10.29;87.72;96582.50;1785048;79;21429;-72
2021/05/02 06:09:23;;;;;;;25.25;18.02;;;;;;;10.25;88.83;96555.80;1785219;80;21507;-72
2021/05/02 06:11:50;;;;;;;25.27;15.58;;;;;;;10.30;88.44;96571.12;1785161;79;21345;-72
2021/05/02 06:14:16;;;;;;;21.05;14.10;;;;;;;10.36;88.06;96568.52;1785254;80;21409;-72
2021/05/02 06:16:42;;;;;;;18.25;12.30;;;;;;;10.45;87.95;96559.87;1785260;79;22074;-72
2021/05/02 06:19:08;;;;;;;20.23;13.90;;;;;;;10.31;90.66;96501.77;1785080;80;21416;-73
2021/05/02 06:21:34;;;;;;;23.47;15.03;;;;;;;10.31;90.66;96501.77;1785194;79;21070;-73
2021/05/02 06:24:01;;;;;;;23.25;15.28;;;;;;;10.38;88.94;96466.11;1785101;80;21083;-72
2021/05/02 06:26:28;;;;;;;30.20;20.08;;;;;;;10.45;88.50;96462.38;1785223;79;21003;-72
2021/05/02 06:28:54;;;;;;;24.67;18.57;;;;;;;10.52;88.27;96416.67;1785101;79;21397;-72
2021/05/02 06:31:20;;;;;;;33.05;23.62;;;;;;;10.64;88.10;96442.56;1785074;79;21069;-72
2021/05/02 06:33:47;;;;;;;22.65;14.73;;;;;;;10.78;88.06;96448.40;1785134;80;21428;-72
2021/05/02 06:36:13;;;;;;;27.25;18.23;;;;;;;11.00;87.37;96437.38;1785207;79;21170;-72
2021/05/02 06:38:40;;;;;;;19.20;13.95;;;;;;;11.11;89.67;96432.41;1785210;79;21133;-72
2021/05/02 06:41:06;;;;;;;25.75;17.67;;;;;;;11.35;87.79;96434.05;1785193;79;21233;-72
2021/05/02 06:43:32;;;;;;;26.57;18.12;;;;;;;11.60;87.16;96437.81;1785044;80;21094;-72
2021/05/02 06:45:58;;;;;;;29.75;18.75;;;;;;;11.69;86.79;96426.36;1785097;79;21189;-72
2021/05/02 06:48:24;;;;;;;29.70;20.10;;;;;;;11.77;86.36;96419.31;1785036;80;21087;-72
2021/05/02 06:50:51;;;;;;;41.83;27.27;;;;;;;11.91;86.31;96420.49;1785262;80;21162;-72
2021/05/02 06:53:18;;;;;;;29.05;21.65;;;;;;;12.22;86.30;96416.91;1754777;80;21093;-72
2021/05/02 06:55:44;;;;;;;29.30;24.25;;;;;;;12.60;86.43;96412.72;1785121;80;21464;-72
2021/05/02 06:58:11;;;;;;;24.70;18.80;;;;;;;12.92;86.02;96417.98;1754694;80;21413;-72
2021/05/02 07:00:38;;;;;;;27.40;18.92;;;;;;;13.17;85.00;96420.23;1785110;80;21110;-72
2021/05/02 07:03:06;;;;;;;26.12;19.27;;;;;;;13.47;84.81;96414.67;1785192;79;21468;-72
2021/05/02 07:05:33;;;;;;;47.48;30.35;;;;;;;13.77;84.19;96408.50;1785023;79;21388;-72
2021/05/02 07:08:00;;;;;;;29.95;24.20;;;;;;;13.91;82.75;96402.13;1785049;79;21119;-72
2021/05/02 07:10:27;;;;;;;31.42;25.82;;;;;;;14.14;82.59;96390.80;1785178;80;21134;-72
2021/05/02 07:12:53;;;;;;;32.90;28.77;;;;;;;14.61;82.79;96390.53;1785084;79;21082;-72
2021/05/02 07:15:19;;;;;;;31.95;23.67;;;;;;;15.04;81.77;96392.29;1785287;80;21125;-73
2021/05/02 07:17:46;;;;;;;19.00;14.25;;;;;;;15.41;82.02;96389.61;1785250;79;21239;-72
2021/05/02 07:20:14;;;;;;;24.60;15.50;;;;;;;15.60;80.83;96373.13;1785173;79;21126;-72
2021/05/02 07:22:43;;;;;;;20.62;15.83;;;;;;;15.70;81.05;96365.80;1785363;79;21134;-72
2021/05/02 07:25:09;;;;;;;18.52;13.48;;;;;;;16.04;79.86;96372.47;1785443;80;21443;-72
2021/05/02 07:27:36;;;;;;;20.10;15.35;;;;;;;16.47;80.33;96367.97;1785222;79;21078;-72
2021/05/02 07:30:03;;;;;;;15.18;10.65;;;;;;;17.01;79.25;96359.77;1797535;79;21186;-72
2021/05/02 07:32:30;;;;;;;12.78;9.18;;;;;;;17.83;77.98;96355.77;1799778;78;21141;-72
2021/05/02 07:34:56;;;;;;;12.98;9.53;;;;;;;18.04;75.13;96353.38;1799861;79;21031;-72
2021/05/02 07:37:22;;;;;;;12.58;9.25;;;;;;;18.15;75.80;96343.16;1799773;78;21101;-72
2021/05/02 07:39:48;;;;;;;13.75;8.53;;;;;;;18.23;75.93;96349.74;1780854;80;21401;-72
2021/05/02 07:42:14;;;;;;;9.30;7.22;;;;;;;18.90;75.19;96344.19;1780885;79;22036;-72
2021/05/02 07:44:40;;;;;;;12.63;8.75;;;;;;;19.22;74.41;96339.83;1780730;80;21130;-72
2021/05/02 07:47:06;;;;;;;14.40;9.48;;;;;;;19.02;74.19;96336.48;1780819;79;21011;-72
2021/05/02 07:49:33;;;;;;;13.18;8.53;;;;;;;18.77;72.15;96346.38;1780760;80;21110;-72
2021/05/02 07:51:59;;;;;;;17.98;11.15;;;;;;;18.33;73.20;96345.57;1780921;79;21424;-72
2021/05/02 07:54:25;;;;;;;13.95;8.33;;;;;;;17.98;73.12;96347.99;1780773;80;21188;-73
2021/05/02 07:56:51;;;;;;;8.75;6.95;;;;;;;17.67;73.77;96357.23;1780740;79;21122;-72
2021/05/02 07:59:17;;;;;;;12.85;7.67;;;;;;;17.41;74.34;96354.42;1780883;80;21425;-72
2021/05/02 08:01:43;;;;;;;11.50;7.78;;;;;;;17.14;74.79;96365.28;1780808;79;21099;-72
2021/05/02 08:04:10;;;;;;;13.45;9.38;;;;;;;16.95;75.25;96363.15;1780801;80;21138;-72
2021/05/02 08:06:36;;;;;;;12.20;8.63;;;;;;;16.71;75.64;96372.42;1780862;79;21259;-72
2021/05/02 08:09:02;;;;;;;12.18;9.13;;;;;;;16.59;76.21;96361.02;1780725;80;21087;-72
2021/05/02 08:11:30;;;;;;;11.18;9.65;;;;;;;16.35;78.21;96356.02;1780771;79;21039;-72
2021/05/02 08:13:56;;;;;;;13.53;10.85;;;;;;;16.14;78.03;96359.63;1780784;80;21114;-72
2021/05/02 08:16:22;;;;;;;16.97;12.13;;;;;;;16.02;77.89;96369.30;1780850;79;21035;-72
2021/05/02 08:18:48;;;;;;;20.80;13.68;;;;;;;15.86;79.03;96365.80;1780909;80;22102;-72
2021/05/02 08:21:14;;;;;;;19.40;15.03;;;;;;;15.80;78.82;96370.72;1780720;79;21170;-72
2021/05/02 08:23:41;;;;;;;20.52;16.05;;;;;;;15.74;79.13;96377.03;1780879;80;21055;-72
2021/05/02 08:26:07;;;;;;;22.32;13.98;;;;;;;15.65;79.10;96386.55;1780786;79;21071;-72
2021/05/02 08:28:33;;;;;;;21.68;14.80;;;;;;;15.63;79.29;96383.36;1781176;80;21530;-72
2021/05/02 08:30:59;;;;;;;21.45;15.28;;;;;;;15.56;80.42;96381.80;1785287;79;22308;-72
2021/05/02 08:33:26;;;;;;;18.48;14.28;;;;;;;15.50;79.90;96388.87;1785106;80;21150;-72
2021/05/02 08:35:52;;;;;;;24.07;15.08;;;;;;;15.43;80.94;96386.53;1785278;79;21563;-72
2021/05/02 08:38:18;;;;;;;21.15;12.80;;;;;;;15.39;80.76;96381.56;1785271;80;21134;-72
2021/05/02 08:40:44;;;;;;;14.87;11.05;;;;;;;15.34;81.49;96394.88;1785270;80;21122;-72
2021/05/02 08:43:10;;;;;;;15.45;11.10;;;;;;;15.33;81.10;96400.12;1785173;79;21192;-72
2021/05/02 08:45:36;;;;;;;16.57;9.88;;;;;;;15.30;81.72;96400.04;1785104;80;21059;-72
2021/05/02 08:48:04;;;;;;;15.08;10.70;;;;;;;15.32;81.37;96408.66;1785168;79;21114;-72
2021/05/02 08:50:32;;;;;;;20.13;12.50;;;;;;;15.36;81.16;96414.42;1785380;80;21083;-72
2021/05/02 08:52:58;;;;;;;16.00;12.25;;;;;;;15.39;81.04;96412.38;1757062;80;21388;-72
2021/05/02 08:55:24;;;;;;;14.68;11.50;;;;;;;15.34;81.43;96407.16;1785175;80;22050;-72
2021/05/02 08:57:51;;;;;;;16.25;13.18;;;;;;;15.23;81.27;96418.37;1785202;79;21499;-72
2021/05/02 09:00:18;;;;;;;23.55;18.42;;;;;;;15.24;81.48;96419.37;1785175;80;21018;-72
2021/05/02 09:02:55;;;;;;;30.32;21.62;;;;;;;15.26;81.58;96406.75;1785187;79;21083;-72
2021/05/02 09:05:22;;;;;;;25.43;18.60;;;;;;;15.22;81.61;96404.51;1784526;80;21063;-72
2021/05/02 09:07:48;;;;;;;22.95;13.22;;;;;;;15.41;81.70;96416.12;1785141;79;21263;-72
2021/05/02 09:10:17;;;;;;;20.50;12.60;;;;;;;15.54;81.89;96416.25;1785190;80;21079;-72
2021/05/02 09:12:44;;;;;;;;;;;;;;;15.61;81.86;96432.86;1787919;79;21486;-72
2021/05/02 09:15:19;;;;;;;25.95;16.70;;;;;;;15.60;82.30;96444.89;1752956;80;20685;-72
2021/05/02 09:18:03;;;;;;;19.73;12.63;;;;;;;15.66;81.83;96446.27;1785214;79;21023;-71
2021/05/02 09:20:43;;;;;;;12.18;4.80;;;;;;;15.75;81.81;96439.27;1784903;80;21201;-71
2021/05/02 09:23:09;;;;;;;12.58;6.22;;;;;;;15.80;81.87;96443.09;1785126;79;21135;-73
2021/05/02 09:25:53;;;;;;;7.50;4.65;;;;;;;15.87;81.62;96446.58;1785147;80;21031;-73
2021/05/02 09:28:49;;;;;;;8.48;4.10;;;;;;;16.00;81.10;96460.39;1785253;80;21106;-72
2021/05/02 09:31:30;;;;;;;10.35;6.22;;;;;;;16.06;80.36;96476.72;1785275;79;21153;-71
2021/05/02 09:34:18;;;;;;;15.15;10.20;;;;;;;15.97;79.60;96504.20;1785198;80;21195;-71
2021/05/02 09:36:57;;;;;;;;;;;;;;;15.76;75.08;96514.01;1787735;79;21015;-71
2021/05/02 09:39:48;;;;;;;12.40;6.97;;;;;;;15.63;74.84;96530.22;1784748;80;20250;-72
2021/05/02 09:42:19;;;;;;;11.05;6.50;;;;;;;15.65;72.10;96533.41;1785158;79;21074;-71
2021/05/02 09:44:49;;;;;;;9.90;6.20;;;;;;;15.54;71.77;96551.38;1785257;80;21479;-72
2021/05/02 09:47:23;;;;;;;8.80;6.37;;;;;;;15.47;71.34;96553.36;1785129;79;21983;-71
2021/05/02 09:50:10;;;;;;;8.98;6.55;;;;;;;15.48;70.88;96551.42;1785034;80;21464;-71
2021/05/02 09:53:03;;;;;;;8.53;5.93;;;;;;;15.44;71.45;96554.03;1785494;79;21071;-72
2021/05/02 09:55:35;;;;;;;9.33;6.22;;;;;;;15.46;71.96;96549.59;1785131;80;21123;-72
2021/05/02 09:58:15;;;;;;;18.25;10.23;;;;;;;15.59;71.56;96553.08;1785192;79;21091;-71
2021/05/02 10:00:53;;;;;;;8.08;6.28;;;;;;;15.70;70.25;96553.63;1785014;80;21162;-71
2021/05/02 10:03:24;;;;;;;8.15;5.90;;;;;;;15.81;66.81;96548.48;1785118;80;21088;-72
2021/05/02 10:06:06;;;;;;;6.40;4.85;;;;;;;16.15;66.23;96562.61;1785214;80;21110;-71
2021/05/02 10:08:33;;;;;;;8.68;6.03;;;;;;;17.07;64.49;96581.31;1785086;80;21130;-73
2021/05/02 10:11:03;;;;;;;7.60;5.23;;;;;;;18.51;59.42;96593.44;1785385;79;21507;-73
2021/05/02 10:13:29;;;;;;;8.73;6.17;;;;;;;20.42;55.16;96598.44;1785124;80;21288;-73
2021/05/02 10:15:57;;;;;;;8.23;5.42;;;;;;;19.85;54.86;96605.48;1785022;79;21118;-73
2021/05/02 10:18:24;;;;;;;15.40;9.15;;;;;;;19.70;56.12;96614.71;1785267;80;21078;-72
2021/05/02 10:20:50;;;;;;;9.00;6.05;;;;;;;18.80;54.62;96613.96;1785129;80;21530;-72
2021/05/02 10:23:17;;;;;;;9.25;6.85;;;;;;;17.70;57.68;96620.88;1785134;79;21083;-72
2021/05/02 10:25:45;;;;;;;10.08;6.60;;;;;;;17.15;59.85;96636.44;1785136;80;22326;-72
2021/05/02 10:28:23;;;;;;;8.03;6.00;;;;;;;16.58;61.24;96643.81;1785152;79;21090;-72
2021/05/02 10:30:54;;;;;;;8.57;7.13;;;;;;;15.96;62.11;96652.86;1785339;80;21134;-72
2021/05/02 10:33:36;;;;;;;9.63;6.92;;;;;;;15.34;63.59;96650.05;1785201;80;21134;-71
2021/05/02 10:36:22;;;;;;;10.53;7.03;;;;;;;15.05;64.92;96665.31;1785222;79;21507;-72
2021/05/02 10:38:52;;;;;;;13.45;9.48;;;;;;;14.81;65.60;96664.72;1785250;80;21195;-71
2021/05/02 10:41:37;;;;;;;9.38;6.90;;;;;;;14.69;66.07;96664.13;1785078;79;21044;-72
2021/05/02 10:44:17;;;;;;;10.70;7.42;;;;;;;14.70;66.14;96663.55;1785247;80;21109;-73
2021/05/02 10:46:53;;;;;;;10.15;7.10;;;;;;;14.78;66.23;96666.17;1785132;79;21082;-72
2021/05/02 10:49:24;;;;;;;10.93;7.10;;;;;;;14.76;66.44;96660.84;1785184;80;21468;-72
2021/05/02 10:51:53;;;;;;;11.15;7.45;;;;;;;14.68;66.81;96672.88;1785290;79;21126;-72
2021/05/02 10:54:24;;;;;;;9.65;7.47;;;;;;;14.63;66.64;96675.04;1784862;80;21153;-71
2021/05/02 10:56:59;;;;;;;10.05;6.90;;;;;;;14.48;66.78;96682.50;1757489;80;21130;-71
2021/05/02 10:59:27;;;;;;;7.20;5.87;;;;;;;14.35;67.19;96686.50;1785274;80;21078;-71
2021/05/02 11:01:54;;;;;;;8.73;6.30;;;;;;;14.27;67.28;96694.76;1757096;80;21071;-71
2021/05/02 11:04:21;;;;;;;12.65;6.60;;;;;;;14.13;67.69;96705.96;1785349;80;21316;-71
2021/05/02 11:06:51;;;;;;;6.47;5.08;;;;;;;14.09;68.06;96709.90;1785205;79;21015;-71
2021/05/02 11:09:18;;;;;;;8.30;4.95;;;;;;;13.96;68.33;96720.52;1785214;80;21075;-71
2021/05/02 11:11:54;;;;;;;8.20;4.67;;;;;;;13.91;68.13;96724.80;1785246;79;21015;-71
2021/05/02 11:14:26;;;;;;;5.45;4.17;;;;;;;13.73;67.98;96714.59;1785330;80;21102;-71
2021/05/02 11:17:01;;;;;;;10.38;5.42;;;;;;;14.43;66.96;96716.16;1785283;79;21254;-72
2021/05/02 11:19:35;;;;;;;4.67;2.77;;;;;;;15.45;64.63;96711.20;1776738;80;21031;-71
2021/05/02 11:22:09;;;;;;;4.80;3.27;;;;;;;15.68;62.16;96718.95;1785403;79;21480;-72
2021/05/02 11:24:45;;;;;;;4.10;2.72;;;;;;;15.31;63.31;96720.90;1756739;80;21083;-71
2021/05/02 11:27:47;;;;;;;6.12;3.25;;;;;;;15.18;63.45;96735.89;1785296;79;21062;-71
2021/05/02 11:30:15;;;;;;;4.77;3.00;;;;;;;14.74;62.74;96728.56;1723137;81;21209;-71
2021/05/02 11:32:43;;;;;;;9.80;3.50;;;;;;;14.46;63.32;96735.19;1766618;79;21118;-71